Windermere, Canada
Current Conditions -  °F | °C
As of 2:00 AM on Monday 20 Oct 2014 (Local Time) from CYXC Reporting Station
Few Clouds Few Clouds  
Wind Chill:   Ceiling: Unl
Heat Index:   Visibility: 25mi
Dew Point:   Wind: 5mph
Humidity: 81%   Direction: 220°SW
Pressure: 29.86"   Gusts: NA
Location:  50.47°N, 115.97°W
Report Text: CYXC 200800Z 22004KT 25SM FEW250 07/04 A2986 RMK CI2 SLP116
Loading
Personal Weather Stations






























Interactive Weather Map
Tropical Storm Tracking
New forecast layout! Learn more

10-Day Weather Forecast

Advertisements
Track Severe Weather on mobile